Time;durP1;ratioP1;P1;durP2;ratioP2;P2;SDS_P1;SDS_P2;PMS_P1;PMS_P2;Temp;Humidity;BMP_temperature;BMP_pressure;BME280_temperature;BME280_humidity;BME280_pressure;Samples;Min_cycle;Max_cycle;Signal;HPM_P1;HPM_P2
2023/12/28 00:00:53;;;;;;;57.58;16.20;;;;;;;5.18;82.51;100073.94;6119208;23;20025;-82
2023/12/28 00:03:20;;;;;;;32.55;14.73;;;;;;;5.00;82.70;100078.56;6120652;23;20458;-82
2023/12/28 00:05:47;;;;;;;40.50;16.73;;;;;;;5.00;82.89;100058.34;6121092;23;20066;-82
2023/12/28 00:08:14;;;;;;;31.85;15.38;;;;;;;5.05;82.47;100065.13;6096655;23;20033;-82
2023/12/28 00:10:41;;;;;;;30.80;14.73;;;;;;;4.99;82.20;100055.81;6119959;23;20405;-83
2023/12/28 00:13:07;;;;;;;33.50;14.35;;;;;;;5.03;80.83;100065.22;6096473;23;20517;-82
2023/12/28 00:15:34;;;;;;;29.23;14.40;;;;;;;5.12;80.51;100063.81;6119763;23;20075;-82
2023/12/28 00:18:01;;;;;;;34.63;14.77;;;;;;;5.06;81.07;100064.16;6119868;23;20033;-83
2023/12/28 00:20:28;;;;;;;86.28;16.80;;;;;;;4.98;82.70;100065.47;6144629;23;20025;-82
2023/12/28 00:22:55;;;;;;;39.78;16.67;;;;;;;4.97;84.39;100073.50;6119782;23;20025;-82
2023/12/28 00:25:22;;;;;;;37.70;15.50;;;;;;;4.95;84.64;100070.09;6096583;23;20365;-82
2023/12/28 00:27:49;;;;;;;42.75;16.52;;;;;;;4.95;84.07;100070.09;6096297;23;20096;-82
2023/12/28 00:30:17;;;;;;;35.40;16.00;;;;;;;4.96;84.52;100066.50;6052489;23;20027;-83
2023/12/28 00:32:45;;;;;;;32.67;14.73;;;;;;;4.92;84.42;100054.50;6092407;23;20109;-83
2023/12/28 00:35:13;;;;;;;33.28;16.15;;;;;;;4.90;83.70;100054.59;6091469;23;20025;-82
2023/12/28 00:37:40;;;;;;;44.92;16.83;;;;;;;4.87;83.78;100064.47;6120629;23;20025;-82
2023/12/28 00:40:07;;;;;;;62.33;17.75;;;;;;;4.95;83.17;100052.53;6119434;23;20052;-82
2023/12/28 00:42:34;;;;;;;36.60;15.98;;;;;;;4.82;84.04;100056.84;6095730;23;20018;-82
2023/12/28 00:45:02;;;;;;;48.22;17.23;;;;;;;4.84;83.90;100064.66;6120125;23;20044;-82
2023/12/28 00:47:30;;;;;;;38.05;16.83;;;;;;;4.79;85.07;100073.66;6096533;23;20030;-83
2023/12/28 00:49:58;;;;;;;34.63;15.48;;;;;;;4.81;85.88;100077.97;6120140;23;20365;-83
2023/12/28 00:52:25;;;;;;;41.33;16.65;;;;;;;4.87;85.70;100080.25;6120370;23;20027;-82
2023/12/28 00:54:52;;;;;;;40.67;15.82;;;;;;;4.93;85.94;100077.22;6119618;23;20025;-82
2023/12/28 00:57:18;;;;;;;76.00;17.42;;;;;;;4.88;84.70;100079.31;6145279;23;20037;-82
2023/12/28 00:59:45;;;;;;;41.28;15.10;;;;;;;4.79;84.81;100083.34;6070903;23;20022;-83
2023/12/28 01:02:12;;;;;;;32.05;14.75;;;;;;;4.85;83.26;100080.34;6144225;23;20093;-82
2023/12/28 01:04:39;;;;;;;28.90;14.75;;;;;;;4.75;84.03;100080.03;6096102;23;20069;-82
2023/12/28 01:07:06;;;;;;;29.80;14.75;;;;;;;4.81;83.09;100075.34;6071794;23;20022;-82
2023/12/28 01:09:33;;;;;;;27.17;14.20;;;;;;;4.74;82.23;100064.38;6119410;23;20409;-82
2023/12/28 01:12:00;;;;;;;26.30;13.82;;;;;;;4.73;82.05;100066.16;6144015;23;20017;-82
2023/12/28 01:14:27;;;;;;;27.33;13.35;;;;;;;4.70;81.82;100078.63;6119524;23;20390;-82
2023/12/28 01:16:54;;;;;;;26.27;13.63;;;;;;;4.71;81.63;100083.81;6119096;23;20014;-83
2023/12/28 01:19:21;;;;;;;25.05;13.05;;;;;;;4.73;81.31;100084.56;6144117;23;20098;-83
2023/12/28 01:21:49;;;;;;;23.52;12.65;;;;;;;4.74;81.41;100081.00;6119799;23;20338;-82
2023/12/28 01:24:16;;;;;;;26.48;12.93;;;;;;;4.83;81.62;100074.31;6095541;23;20393;-83
2023/12/28 01:26:43;;;;;;;23.17;11.02;;;;;;;4.72;81.10;100067.09;6119121;23;20037;-82
2023/12/28 01:29:10;;;;;;;22.08;11.23;;;;;;;4.68;80.31;100073.50;6094361;23;20032;-82
2023/12/28 01:31:38;;;;;;;23.02;11.82;;;;;;;4.78;81.21;100068.50;6095040;23;20096;-83
2023/12/28 01:34:05;;;;;;;27.92;12.50;;;;;;;4.69;80.73;100069.91;6120067;23;20039;-82
2023/12/28 01:36:33;;;;;;;22.40;12.32;;;;;;;4.65;80.94;100075.44;6094372;23;20450;-82
2023/12/28 01:39:00;;;;;;;24.70;12.43;;;;;;;4.66;80.79;100070.09;6118790;23;20050;-83
2023/12/28 01:41:26;;;;;;;26.13;13.35;;;;;;;4.63;81.24;100072.91;6091593;23;20025;-82
2023/12/28 01:43:53;;;;;;;24.50;13.32;;;;;;;4.64;81.25;100073.75;6094973;23;20028;-82
2023/12/28 01:46:21;;;;;;;27.05;13.88;;;;;;;4.60;81.23;100080.13;6090468;23;20026;-83
2023/12/28 01:48:50;;;;;;;29.15;16.23;;;;;;;4.51;81.06;100090.25;6090872;23;20045;-82
2023/12/28 01:51:19;;;;;;;31.85;14.38;;;;;;;4.47;80.88;100091.38;6071585;23;20080;-83
2023/12/28 01:53:47;;;;;;;33.50;15.45;;;;;;;4.50;80.80;100088.59;6090488;23;20022;-82
2023/12/28 01:56:15;;;;;;;34.90;16.00;;;;;;;4.49;81.25;100093.91;6120147;23;20025;-83
2023/12/28 01:58:43;;;;;;;29.15;15.70;;;;;;;4.49;81.44;100107.91;6095629;23;20022;-83
2023/12/28 02:01:11;;;;;;;36.80;15.77;;;;;;;4.41;81.59;100099.63;6142661;23;20030;-82
2023/12/28 02:03:38;;;;;;;28.27;13.45;;;;;;;4.49;81.41;100101.81;6095186;23;20737;-83
2023/12/28 02:06:06;;;;;;;32.63;15.43;;;;;;;4.52;81.85;100096.38;6095568;23;20483;-82
2023/12/28 02:08:33;;;;;;;32.60;13.13;;;;;;;4.45;82.28;100095.91;6095245;23;20100;-83
2023/12/28 02:11:00;;;;;;;33.38;14.05;;;;;;;4.43;82.30;100096.91;6094491;23;20017;-82
2023/12/28 02:13:28;;;;;;;24.85;13.13;;;;;;;4.52;81.54;100105.09;6070968;23;20084;-82
2023/12/28 02:15:59;;;;;;;28.83;13.00;;;;;;;4.48;81.14;100108.00;6053219;23;20053;-83
2023/12/28 02:18:30;;;;;;;25.65;13.25;;;;;;;4.43;80.95;100104.81;6068358;23;20022;-83
2023/12/28 02:20:58;;;;;;;26.63;12.98;;;;;;;4.44;81.02;100101.22;6115215;23;20350;-83
2023/12/28 02:23:24;;;;;;;29.77;14.25;;;;;;;4.35;81.15;100111.34;6055539;23;20018;-83
2023/12/28 02:25:51;;;;;;;26.83;13.85;;;;;;;4.33;81.39;100110.59;6145155;23;20021;-82
2023/12/28 02:28:18;;;;;;;32.28;14.15;;;;;;;4.34;81.30;100106.19;6096874;23;20025;-83
2023/12/28 02:30:45;;;;;;;37.75;17.45;;;;;;;4.33;81.26;100112.38;6095985;23;20072;-82
2023/12/28 02:33:19;;;;;;;33.33;14.85;;;;;;;4.36;81.25;100117.44;6120326;23;20084;-82
2023/12/28 02:35:57;;;;;;;27.20;13.93;;;;;;;4.35;81.09;100124.50;6120922;23;20029;-82
2023/12/28 02:38:29;;;;;;;29.35;13.70;;;;;;;4.39;81.49;100119.91;6096925;23;20389;-82
2023/12/28 02:40:56;;;;;;;37.53;15.40;;;;;;;4.49;81.71;100123.69;6119584;23;20052;-82
2023/12/28 02:43:23;;;;;;;32.40;15.32;;;;;;;4.44;82.11;100123.09;6120946;23;20037;-83
2023/12/28 02:45:50;;;;;;;26.83;12.88;;;;;;;4.38;83.09;100120.00;6096430;23;20072;-82
2023/12/28 02:48:17;;;;;;;30.67;15.40;;;;;;;4.42;83.30;100118.88;6121363;23;20022;-82
2023/12/28 02:50:44;;;;;;;33.55;14.90;;;;;;;4.45;84.12;100118.69;6144478;23;20374;-82
2023/12/28 02:53:12;;;;;;;28.40;14.32;;;;;;;4.40;83.72;100120.75;6120840;23;20088;-83
2023/12/28 02:55:39;;;;;;;31.42;14.77;;;;;;;4.44;83.50;100117.00;6096865;23;20032;-82
2023/12/28 02:58:05;;;;;;;36.55;14.60;;;;;;;4.47;83.42;100120.28;6095908;23;20029;-82
2023/12/28 03:00:32;;;;;;;30.83;13.98;;;;;;;4.42;83.93;100105.72;6071120;23;20029;-83
2023/12/28 03:02:59;;;;;;;28.15;14.30;;;;;;;4.43;84.46;100103.03;6121124;23;20025;-82
2023/12/28 03:05:26;;;;;;;31.67;15.80;;;;;;;4.50;84.38;100103.50;6096080;23;20052;-82
2023/12/28 03:07:55;;;;;;;30.08;14.27;;;;;;;4.50;85.14;100103.50;6096395;23;20052;-83
2023/12/28 03:10:22;;;;;;;30.85;15.52;;;;;;;4.49;84.75;100096.53;6120671;23;20101;-82
2023/12/28 03:12:49;;;;;;;30.10;14.20;;;;;;;4.58;84.85;100101.28;6096078;23;20450;-83
2023/12/28 03:15:17;;;;;;;30.38;14.27;;;;;;;4.53;85.69;100096.28;6144199;23;20045;-83
2023/12/28 03:17:43;;;;;;;28.80;13.75;;;;;;;4.60;85.48;100096.75;6121087;23;20021;-83
2023/12/28 03:20:10;;;;;;;28.02;14.07;;;;;;;4.56;85.72;100098.72;6118811;23;20021;-83
2023/12/28 03:22:37;;;;;;;28.33;12.80;;;;;;;4.63;85.78;100104.47;6071861;23;20022;-83
2023/12/28 03:25:05;;;;;;;31.30;12.73;;;;;;;4.62;85.74;100094.03;6096487;23;20524;-82
2023/12/28 03:27:31;;;;;;;31.38;14.23;;;;;;;4.68;84.91;100097.16;6095376;23;20045;-82
2023/12/28 03:29:58;;;;;;;31.40;13.48;;;;;;;4.68;84.80;100091.91;6094717;23;20029;-83
2023/12/28 03:32:25;;;;;;;26.85;12.50;;;;;;;4.70;84.76;100086.53;6143416;23;20715;-82
2023/12/28 03:34:52;;;;;;;28.60;13.75;;;;;;;4.67;85.05;100089.34;6119770;23;20017;-83
2023/12/28 03:37:19;;;;;;;29.23;14.10;;;;;;;4.71;85.41;100096.13;6119961;23;20335;-83
2023/12/28 03:39:46;;;;;;;26.40;12.55;;;;;;;4.69;85.32;100079.59;6052019;23;20029;-82
2023/12/28 03:42:13;;;;;;;26.60;13.50;;;;;;;4.67;86.56;100078.81;6094737;23;20025;-82
2023/12/28 03:44:40;;;;;;;22.83;12.75;;;;;;;4.67;86.57;100082.28;6044333;23;20017;-82
2023/12/28 03:47:07;;;;;;;21.85;12.05;;;;;;;4.67;86.77;100076.19;6144254;23;20028;-83
2023/12/28 03:49:34;;;;;;;26.60;13.02;;;;;;;4.75;86.17;100081.84;6143173;23;20029;-82
2023/12/28 03:52:01;;;;;;;29.63;13.10;;;;;;;4.65;87.03;100071.00;6120311;23;20327;-82
2023/12/28 03:54:28;;;;;;;27.88;13.27;;;;;;;4.68;87.14;100078.75;6096440;23;20056;-83
2023/12/28 03:56:55;;;;;;;28.23;12.98;;;;;;;4.69;86.51;100069.91;6119436;23;20027;-83
2023/12/28 03:59:22;;;;;;;23.08;14.00;;;;;;;4.72;86.49;100080.22;6119578;23;20341;-82
2023/12/28 04:01:49;;;;;;;27.98;13.20;;;;;;;4.70;86.71;100079.47;6095162;23;20025;-82
2023/12/28 04:04:16;;;;;;;29.40;13.52;;;;;;;4.74;86.90;100081.00;6072284;23;20031;-83
2023/12/28 04:06:43;;;;;;;33.40;12.05;;;;;;;4.79;86.70;100078.09;6119897;23;20028;-82
2023/12/28 04:09:14;;;;;;;24.38;13.25;;;;;;;4.75;87.95;100077.41;6095862;23;20354;-82
2023/12/28 04:11:41;;;;;;;27.42;12.63;;;;;;;4.78;88.04;100071.13;6119491;23;20448;-82
2023/12/28 04:14:09;;;;;;;29.25;13.02;;;;;;;4.82;88.17;100064.75;6095260;23;20033;-83
2023/12/28 04:16:36;;;;;;;25.25;13.70;;;;;;;4.83;88.43;100066.41;6115045;23;20029;-83
2023/12/28 04:19:03;;;;;;;27.55;13.20;;;;;;;4.84;87.64;100069.94;6119464;23;20033;-82
2023/12/28 04:21:30;;;;;;;25.30;12.60;;;;;;;4.75;87.93;100073.94;6119309;23;20327;-83
2023/12/28 04:23:57;;;;;;;27.23;12.68;;;;;;;4.78;87.81;100079.88;6144482;23;20433;-82
2023/12/28 04:26:25;;;;;;;28.42;13.45;;;;;;;4.72;88.00;100079.41;6095811;23;20025;-82
2023/12/28 04:28:52;;;;;;;24.30;12.63;;;;;;;4.69;87.96;100069.06;6095496;23;20465;-82
2023/12/28 04:31:19;;;;;;;31.25;13.63;;;;;;;4.69;88.15;100071.69;6119541;23;20013;-82
2023/12/28 04:33:46;;;;;;;33.88;13.60;;;;;;;4.77;87.63;100070.28;6096037;23;20095;-82
2023/12/28 04:36:13;;;;;;;25.13;11.77;;;;;;;4.76;87.18;100059.88;6052165;23;20084;-82
2023/12/28 04:38:41;;;;;;;23.77;10.88;;;;;;;4.81;87.09;100060.44;6120297;23;20028;-82
2023/12/28 04:41:09;;;;;;;24.25;12.85;;;;;;;4.82;88.18;100075.28;6089489;23;20109;-82
2023/12/28 04:43:36;;;;;;;27.30;12.48;;;;;;;4.89;88.73;100084.47;6090305;23;20049;-82
2023/12/28 04:46:05;;;;;;;27.38;12.48;;;;;;;4.85;88.97;100080.34;6113847;23;20335;-82
2023/12/28 04:48:32;;;;;;;23.48;10.57;;;;;;;4.91;88.22;100079.09;6043316;23;20014;-82
2023/12/28 04:51:02;;;;;;;26.75;11.35;;;;;;;4.87;89.13;100090.78;6094794;23;20025;-82
2023/12/28 04:53:29;;;;;;;27.27;11.52;;;;;;;4.88;89.56;100106.47;6120563;23;20740;-82
2023/12/28 04:55:56;;;;;;;28.95;12.45;;;;;;;4.90;89.83;100094.06;6071590;23;20025;-83
2023/12/28 04:58:23;;;;;;;28.58;11.45;;;;;;;4.87;90.02;100107.41;6143839;23;20072;-82
2023/12/28 05:00:49;;;;;;;33.60;13.27;;;;;;;4.88;90.73;100108.25;6142757;23;20080;-81
2023/12/28 05:03:18;;;;;;;26.60;12.95;;;;;;;4.91;90.15;100111.56;6120256;23;20666;-82
2023/12/28 05:05:45;;;;;;;31.40;13.48;;;;;;;4.82;90.69;100108.63;6120307;23;20017;-82
2023/12/28 05:08:15;;;;;;;26.67;13.20;;;;;;;4.86;90.25;100113.63;6072869;23;20028;-81
2023/12/28 05:10:42;;;;;;;26.90;12.63;;;;;;;4.87;90.61;100131.09;6094836;23;20561;-82
2023/12/28 05:13:09;;;;;;;32.88;12.40;;;;;;;4.85;91.64;100146.13;6143707;23;20615;-82
2023/12/28 05:15:36;;;;;;;28.80;13.18;;;;;;;4.89;91.83;100152.91;6119765;23;20021;-82
2023/12/28 05:18:03;;;;;;;30.63;13.27;;;;;;;4.89;92.99;100162.59;6052565;23;20333;-82
2023/12/28 05:20:31;;;;;;;31.60;13.45;;;;;;;4.88;92.21;100171.41;6071247;23;20137;-83
2023/12/28 05:22:58;;;;;;;25.27;11.55;;;;;;;4.95;91.99;100168.31;6144259;23;20072;-82
2023/12/28 05:25:24;;;;;;;32.08;12.45;;;;;;;5.00;92.40;100154.88;6095285;23;20080;-82
2023/12/28 05:27:51;;;;;;;27.17;11.80;;;;;;;5.03;92.77;100145.94;6119166;23;20041;-83
2023/12/28 05:30:18;;;;;;;25.63;12.05;;;;;;;5.10;92.26;100140.22;6118902;23;20029;-82
2023/12/28 05:32:45;;;;;;;26.10;12.88;;;;;;;5.09;93.29;100133.28;6119256;23;20025;-83
2023/12/28 05:35:11;;;;;;;29.38;12.30;;;;;;;5.11;93.86;100133.16;6142631;23;20101;-83
2023/12/28 05:37:38;;;;;;;30.02;13.63;;;;;;;5.14;93.84;100144.38;6143701;23;20537;-82
2023/12/28 05:40:06;;;;;;;26.55;12.55;;;;;;;5.16;93.30;100155.63;6118197;23;20497;-82
2023/12/28 05:42:32;;;;;;;26.15;11.55;;;;;;;5.21;93.51;100163.25;6120013;23;20033;-82
2023/12/28 05:44:59;;;;;;;26.17;11.48;;;;;;;5.21;93.93;100166.72;6094869;23;20349;-82
2023/12/28 05:47:26;;;;;;;30.45;12.23;;;;;;;5.21;94.72;100161.47;6118558;23;20021;-82
2023/12/28 05:49:53;;;;;;;26.40;12.93;;;;;;;5.21;94.79;100172.00;6071625;23;20468;-82
2023/12/28 05:52:20;;;;;;;27.52;11.90;;;;;;;5.22;95.46;100168.44;6097121;23;20017;-82
2023/12/28 05:54:47;;;;;;;29.77;12.05;;;;;;;5.23;95.71;100162.22;6096547;23;20025;-82
2023/12/28 05:57:15;;;;;;;26.13;10.55;;;;;;;5.26;96.47;100157.72;6122412;23;20032;-82
2023/12/28 05:59:42;;;;;;;25.60;11.15;;;;;;;5.26;97.29;100173.50;6120519;23;20026;-82
2023/12/28 06:02:09;;;;;;;25.08;10.88;;;;;;;5.33;98.09;100165.16;6145779;23;20037;-82
2023/12/28 06:04:35;;;;;;;24.80;9.77;;;;;;;5.38;97.90;100160.44;6121599;23;20028;-83
2023/12/28 06:07:06;;;;;;;22.17;9.10;;;;;;;5.43;97.52;100166.28;6145599;23;20028;-82
2023/12/28 06:09:32;;;;;;;22.00;9.05;;;;;;;5.48;97.67;100170.41;6072521;23;20025;-83
2023/12/28 06:11:59;;;;;;;19.77;9.40;;;;;;;5.51;97.56;100178.13;6120465;23;20128;-82
2023/12/28 06:14:26;;;;;;;18.83;8.40;;;;;;;5.54;97.89;100183.19;6145372;23;20018;-83
2023/12/28 06:16:53;;;;;;;25.95;9.70;;;;;;;5.54;97.90;100175.28;6071862;23;20028;-83
2023/12/28 06:19:20;;;;;;;23.67;10.07;;;;;;;5.57;97.89;100186.50;6145438;23;20394;-83
2023/12/28 06:21:50;;;;;;;24.80;10.68;;;;;;;5.58;98.21;100176.81;6096715;23;20025;-83
2023/12/28 06:24:17;;;;;;;28.17;10.20;;;;;;;5.59;98.26;100181.13;6121678;23;20025;-82
2023/12/28 06:26:44;;;;;;;27.70;10.77;;;;;;;5.60;98.59;100191.56;6121454;23;20508;-83
2023/12/28 06:29:12;;;;;;;24.65;10.85;;;;;;;5.62;97.96;100194.09;6072738;23;20354;-83
2023/12/28 06:31:39;;;;;;;22.23;10.90;;;;;;;5.65;98.19;100196.56;6097648;23;20346;-82
2023/12/28 06:34:06;;;;;;;25.30;10.65;;;;;;;5.66;98.42;100198.25;6121708;23;20056;-82
2023/12/28 06:36:34;;;;;;;23.95;10.57;;;;;;;5.68;98.78;100192.91;6097203;23;20402;-83
2023/12/28 06:39:01;;;;;;;24.60;11.52;;;;;;;5.67;99.35;100176.22;6096717;23;20025;-82
2023/12/28 06:41:27;;;;;;;24.25;11.38;;;;;;;5.67;99.23;100168.31;6053290;23;20068;-81
2023/12/28 06:43:54;;;;;;;25.75;11.43;;;;;;;5.71;99.06;100183.00;6146901;23;20048;-83
2023/12/28 06:46:21;;;;;;;24.88;10.30;;;;;;;5.74;99.48;100174.06;6123004;23;20017;-80
2023/12/28 06:48:48;;;;;;;23.63;9.88;;;;;;;5.77;99.89;100177.31;6093632;23;20438;-80
2023/12/28 06:51:21;;;;;;;25.48;9.85;;;;;;;5.81;99.75;100185.91;6069638;23;20048;-81
2023/12/28 06:53:49;;;;;;;31.02;12.18;;;;;;;5.83;100.00;100190.13;6093049;23;20049;-80
2023/12/28 06:56:17;;;;;;;26.65;9.15;;;;;;;5.83;100.00;100194.56;6121075;23;20034;-81
2023/12/28 06:58:44;;;;;;;19.83;9.15;;;;;;;5.86;100.00;100202.28;6094704;23;20024;-80
2023/12/28 07:01:11;;;;;;;21.42;8.85;;;;;;;5.87;100.00;100203.94;6096976;23;20049;-81
2023/12/28 07:03:39;;;;;;;21.75;8.65;;;;;;;5.87;100.00;100201.31;6050498;23;20025;-80
2023/12/28 07:06:06;;;;;;;22.77;8.70;;;;;;;5.87;100.00;100207.44;6070315;23;20022;-80
2023/12/28 07:08:33;;;;;;;15.93;7.03;;;;;;;5.91;100.00;100209.91;6146304;23;20045;-80
2023/12/28 07:11:03;;;;;;;18.77;7.97;;;;;;;5.93;100.00;100206.22;6098316;23;20021;-81
2023/12/28 07:13:31;;;;;;;18.58;7.65;;;;;;;5.95;100.00;100204.34;6097275;23;20501;-80
2023/12/28 07:15:58;;;;;;;14.57;7.28;;;;;;;5.98;100.00;100206.81;6097758;23;20052;-80
2023/12/28 07:18:26;;;;;;;17.25;7.00;;;;;;;6.00;100.00;100201.41;6098610;23;20397;-80
2023/12/28 07:20:54;;;;;;;13.05;6.38;;;;;;;6.04;100.00;100200.28;6144559;23;20025;-80
2023/12/28 07:23:21;;;;;;;11.45;6.50;;;;;;;6.05;100.00;100205.44;6073512;23;20439;-82
2023/12/28 07:25:48;;;;;;;14.05;5.90;;;;;;;6.06;100.00;100209.78;6145813;23;20048;-80
2023/12/28 07:28:15;;;;;;;13.38;6.25;;;;;;;6.08;100.00;100207.03;6095896;23;20028;-80
2023/12/28 07:30:42;;;;;;;12.75;6.03;;;;;;;6.10;100.00;100210.44;6073751;23;20107;-81
2023/12/28 07:33:09;;;;;;;12.30;6.20;;;;;;;6.10;100.00;100210.44;6120978;23;20033;-84
2023/12/28 07:35:37;;;;;;;20.20;6.30;;;;;;;6.14;100.00;100211.09;6096574;23;20025;-85
2023/12/28 07:38:04;;;;;;;11.25;5.78;;;;;;;6.18;100.00;100212.56;6121047;23;20052;-85
2023/12/28 07:40:31;;;;;;;6.32;4.07;;;;;;;6.20;100.00;100213.31;6096851;23;20017;-84
2023/12/28 07:42:57;;;;;;;10.85;4.78;;;;;;;6.22;100.00;100207.00;6096348;23;20036;-83
2023/12/28 07:45:24;;;;;;;9.48;5.30;;;;;;;6.25;100.00;100208.59;6096787;23;20048;-84
2023/12/28 07:47:52;;;;;;;8.88;4.32;;;;;;;6.29;100.00;100210.94;6120763;23;20025;-84
2023/12/28 07:50:19;;;;;;;10.70;5.30;;;;;;;6.32;100.00;100214.34;6095625;23;20100;-84
2023/12/28 07:52:47;;;;;;;9.63;4.47;;;;;;;6.35;100.00;100214.97;6096499;23;20573;-84
2023/12/28 07:55:14;;;;;;;9.25;3.90;;;;;;;6.37;100.00;100214.88;6120950;23;20024;-85
2023/12/28 07:57:42;;;;;;;8.38;4.10;;;;;;;6.36;100.00;100202.63;6120834;23;20036;-84
2023/12/28 08:00:10;;;;;;;11.10;4.90;;;;;;;6.41;100.00;100205.81;6120511;23;20025;-84
2023/12/28 08:02:37;;;;;;;6.72;3.67;;;;;;;6.42;100.00;100212.81;6097055;23;20022;-84
2023/12/28 08:05:05;;;;;;;7.18;3.40;;;;;;;6.42;100.00;100200.44;6119955;23;20021;-85
2023/12/28 08:07:32;;;;;;;9.68;4.53;;;;;;;6.41;100.00;100197.91;6120507;23;20028;-85
2023/12/28 08:09:59;;;;;;;10.63;4.63;;;;;;;6.45;100.00;100199.41;6120443;23;20014;-84
2023/12/28 08:12:29;;;;;;;5.32;3.33;;;;;;;6.46;100.00;100191.41;6072762;23;20342;-82
2023/12/28 08:14:56;;;;;;;10.27;4.13;;;;;;;6.48;100.00;100199.19;6073416;23;20721;-83
2023/12/28 08:17:23;;;;;;;8.77;4.03;;;;;;;6.48;100.00;100197.41;6072617;23;20162;-83
2023/12/28 08:19:50;;;;;;;8.13;4.70;;;;;;;6.49;100.00;100203.53;6119790;23;20450;-84
2023/12/28 08:22:18;;;;;;;11.18;5.70;;;;;;;6.51;100.00;100206.91;6095556;23;20021;-84
2023/12/28 08:24:45;;;;;;;11.38;5.68;;;;;;;6.52;100.00;100209.44;6120602;23;20690;-83
2023/12/28 08:27:12;;;;;;;8.30;4.40;;;;;;;6.52;100.00;100204.19;6120807;23;20406;-84
2023/12/28 08:29:41;;;;;;;6.95;3.67;;;;;;;6.54;100.00;100201.44;6119407;23;20467;-83
2023/12/28 08:32:11;;;;;;;9.60;4.18;;;;;;;6.53;100.00;100208.50;6095681;23;20461;-84
2023/12/28 08:34:38;;;;;;;14.07;5.80;;;;;;;6.51;100.00;100199.84;6120314;23;20084;-85
2023/12/28 08:37:06;;;;;;;7.07;3.90;;;;;;;6.55;100.00;100218.13;6071064;23;20087;-85
2023/12/28 08:39:33;;;;;;;13.20;4.90;;;;;;;6.57;100.00;100219.72;6143583;23;20029;-84
2023/12/28 08:42:00;;;;;;;9.35;4.72;;;;;;;6.58;100.00;100223.19;6070861;23;20056;-85
2023/12/28 08:44:27;;;;;;;9.70;4.70;;;;;;;6.58;100.00;100226.66;6120074;23;20025;-85
2023/12/28 08:46:53;;;;;;;13.25;5.72;;;;;;;6.61;100.00;100228.25;6095902;23;20076;-84
2023/12/28 08:49:22;;;;;;;11.77;4.53;;;;;;;6.61;100.00;100215.06;6071584;23;20322;-86
2023/12/28 08:51:49;;;;;;;7.20;3.90;;;;;;;6.62;100.00;100224.69;6072821;23;20036;-86
2023/12/28 08:54:16;;;;;;;11.63;4.68;;;;;;;6.64;100.00;100220.13;6071815;23;20025;-85
2023/12/28 08:56:43;;;;;;;12.75;6.47;;;;;;;6.65;100.00;100222.69;6120042;23;20021;-85
2023/12/28 08:59:10;;;;;;;14.82;6.43;;;;;;;6.65;100.00;100221.84;6120532;23;20105;-85
2023/12/28 09:01:37;;;;;;;11.65;4.75;;;;;;;6.65;100.00;100212.13;6120204;23;20393;-82
2023/12/28 09:04:04;;;;;;;12.55;5.85;;;;;;;6.68;100.00;100208.44;6119834;23;20021;-82
2023/12/28 09:06:31;;;;;;;13.07;7.50;;;;;;;6.69;100.00;100208.34;6096696;23;20036;-85
2023/12/28 09:09:03;;;;;;;14.60;10.10;;;;;;;6.70;100.00;100203.91;6105539;23;20017;-85
2023/12/28 09:11:30;;;;;;;13.18;7.10;;;;;;;6.71;100.00;100216.16;6049264;23;20614;-85
2023/12/28 09:13:59;;;;;;;10.55;5.85;;;;;;;6.71;100.00;100217.00;6037779;23;20030;-86
2023/12/28 09:16:28;;;;;;;10.25;6.40;;;;;;;6.71;100.00;100224.06;6066095;23;20477;-86
2023/12/28 09:18:55;;;;;;;9.30;5.38;;;;;;;6.74;100.00;100226.50;6094299;23;20438;-86
2023/12/28 09:21:22;;;;;;;15.05;7.07;;;;;;;6.74;100.00;100237.91;6042078;23;20033;-86
2023/12/28 09:23:53;;;;;;;10.93;6.28;;;;;;;6.72;100.00;100238.97;6066398;23;20041;-85
2023/12/28 09:26:20;;;;;;;12.20;5.40;;;;;;;6.75;100.00;100244.03;6067516;23;20040;-88
2023/12/28 09:28:47;;;;;;;14.27;5.85;;;;;;;6.75;100.00;100254.59;6092106;23;20100;-87
2023/12/28 09:31:14;;;;;;;14.30;6.43;;;;;;;6.75;100.00;100254.59;6047084;23;20096;-86
2023/12/28 09:33:41;;;;;;;10.95;5.78;;;;;;;6.76;100.00;100250.16;6093357;23;20018;-86
2023/12/28 09:36:09;;;;;;;11.60;5.90;;;;;;;6.77;100.00;100254.47;6119618;23;20025;-85
2023/12/28 09:38:36;;;;;;;13.30;5.82;;;;;;;6.75;100.00;100257.25;6096093;23;20366;-85
2023/12/28 09:41:11;;;;;;;12.75;6.50;;;;;;;6.73;100.00;100256.50;6120298;23;20350;-86
2023/12/28 09:43:45;;;;;;;17.60;8.75;;;;;;;6.77;100.00;100254.47;6121003;23;20020;-85
2023/12/28 09:46:13;;;;;;;14.50;6.57;;;;;;;6.74;100.00;100248.47;6096144;23;20480;-85
2023/12/28 09:48:40;;;;;;;13.88;6.95;;;;;;;6.77;100.00;100262.41;6096600;23;20029;-86
2023/12/28 09:51:10;;;;;;;13.73;6.03;;;;;;;6.77;100.00;100254.47;6095761;23;20035;-88
2023/12/28 09:53:40;;;;;;;12.95;6.47;;;;;;;6.76;100.00;100258.91;6073986;23;20091;-84
2023/12/28 09:56:08;;;;;;;18.98;7.25;;;;;;;6.77;100.00;100250.06;6097339;23;20445;-86
2023/12/28 09:58:35;;;;;;;11.95;5.85;;;;;;;6.78;100.00;100250.91;6120558;23;20400;-84
2023/12/28 10:01:05;;;;;;;12.85;6.32;;;;;;;6.78;100.00;100253.56;6095225;23;20100;-85
2023/12/28 10:03:32;;;;;;;8.77;4.85;;;;;;;6.79;100.00;100252.59;6121202;23;20021;-86
2023/12/28 10:05:59;;;;;;;7.90;4.82;;;;;;;6.80;100.00;100254.31;6122040;23;20080;-85
2023/12/28 10:08:27;;;;;;;15.80;6.47;;;;;;;6.79;100.00;100245.50;6109513;23;20080;-85
2023/12/28 10:10:54;;;;;;;9.43;5.57;;;;;;;6.81;100.00;100250.69;6120756;23;20028;-85
2023/12/28 10:13:21;;;;;;;9.90;5.63;;;;;;;6.82;100.00;100247.97;6073660;23;20025;-84
2023/12/28 10:15:49;;;;;;;10.90;6.28;;;;;;;6.83;100.00;100247.00;6095165;23;20076;-82
2023/12/28 10:18:19;;;;;;;7.55;4.95;;;;;;;6.81;100.00;100242.78;6120725;23;20021;-83
2023/12/28 10:20:50;;;;;;;9.00;4.78;;;;;;;6.84;100.00;100237.28;6096236;23;20577;-85
2023/12/28 10:23:18;;;;;;;13.73;5.50;;;;;;;6.84;100.00;100234.66;6121057;23;20441;-86
2023/12/28 10:25:46;;;;;;;9.30;5.45;;;;;;;6.85;100.00;100233.72;6072986;23;20048;-86
2023/12/28 10:28:13;;;;;;;16.85;6.43;;;;;;;6.87;100.00;100232.69;6072548;23;20033;-85
2023/12/28 10:30:41;;;;;;;14.13;5.63;;;;;;;6.90;100.00;100226.34;6095819;23;20354;-84
2023/12/28 10:33:08;;;;;;;11.82;5.82;;;;;;;6.90;100.00;100231.63;6121239;23;20050;-84
2023/12/28 10:35:35;;;;;;;11.38;5.38;;;;;;;6.93;100.00;100231.41;6072910;23;20453;-83
2023/12/28 10:38:04;;;;;;;14.35;5.90;;;;;;;6.93;100.00;100226.13;6071817;23;20022;-83
2023/12/28 10:40:32;;;;;;;9.23;5.43;;;;;;;6.95;100.00;100226.88;6106643;23;20022;-85
2023/12/28 10:43:01;;;;;;;9.00;4.80;;;;;;;6.98;100.00;100212.63;6144395;23;20017;-85
2023/12/28 10:45:33;;;;;;;7.55;4.00;;;;;;;6.98;100.00;100215.28;6143200;23;20052;-84
2023/12/28 10:48:09;;;;;;;7.95;4.13;;;;;;;6.99;100.00;100207.22;6119935;23;20100;-85
2023/12/28 10:50:47;;;;;;;8.05;4.07;;;;;;;6.98;100.00;100200.25;6119494;23;20025;-85
2023/12/28 10:53:29;;;;;;;8.48;3.53;;;;;;;7.00;100.00;100197.53;6118994;23;20053;-86
2023/12/28 10:56:17;;;;;;;5.63;3.53;;;;;;;7.02;100.00;100198.25;6144062;23;20064;-87
2023/12/28 10:58:54;;;;;;;9.32;4.68;;;;;;;7.01;100.00;100199.22;6095009;23;20092;-86
2023/12/28 11:01:28;;;;;;;7.55;4.78;;;;;;;7.02;100.00;100192.97;6071097;23;20096;-87
2023/12/28 11:04:04;;;;;;;8.18;4.05;;;;;;;7.03;100.00;100194.69;6095421;23;20096;-85
2023/12/28 11:06:32;;;;;;;6.30;3.60;;;;;;;7.05;100.00;100193.63;6071007;23;20446;-84
2023/12/28 11:08:59;;;;;;;6.10;3.33;;;;;;;7.06;100.00;100192.66;6097207;23;20072;-85
2023/12/28 11:11:27;;;;;;;6.22;3.38;;;;;;;7.08;100.00;100188.13;6073126;23;20093;-83
2023/12/28 11:13:56;;;;;;;7.18;4.18;;;;;;;7.08;100.00;100189.94;6074512;23;20315;-90
2023/12/28 11:16:22;;;;;;;8.52;4.25;;;;;;;7.08;100.00;100196.06;6097449;23;20446;-86
2023/12/28 11:18:50;;;;;;;8.88;4.20;;;;;;;7.09;100.00;100195.09;6121514;23;20056;-95
2023/12/28 11:21:18;;;;;;;9.18;3.72;;;;;;;7.10;100.00;100198.59;6098932;23;20176;-94